sensor_id;sensor_type;location;lat;lon;timestamp;pressure;altitude;pressure_sealevel;temperature;humidity
13974;BME280;7060;43.770;4.008;2022-08-03T00:00:40;100913.75;;;23.90;45.95
13974;BME280;7060;43.770;4.008;2022-08-03T00:03:09;100914.16;;;23.75;46.40
13974;BME280;7060;43.770;4.008;2022-08-03T00:05:38;100901.78;;;23.73;46.44
13974;BME280;7060;43.770;4.008;2022-08-03T00:08:28;100884.38;;;23.55;47.02
13974;BME280;7060;43.770;4.008;2022-08-03T00:10:57;100906.38;;;23.60;47.20
13974;BME280;7060;43.770;4.008;2022-08-03T00:13:26;100875.50;;;23.42;47.13
13974;BME280;7060;43.770;4.008;2022-08-03T00:15:55;100912.88;;;23.59;46.47
13974;BME280;7060;43.770;4.008;2022-08-03T00:18:24;100899.69;;;23.56;46.62
13974;BME280;7060;43.770;4.008;2022-08-03T00:20:53;100900.13;;;23.53;46.85
13974;BME280;7060;43.770;4.008;2022-08-03T00:23:22;100902.56;;;23.43;47.59
13974;BME280;7060;43.770;4.008;2022-08-03T00:25:52;100915.06;;;23.33;48.01
13974;BME280;7060;43.770;4.008;2022-08-03T00:28:21;100907.56;;;23.28;48.08
13974;BME280;7060;43.770;4.008;2022-08-03T00:30:53;100899.16;;;23.23;48.44
13974;BME280;7060;43.770;4.008;2022-08-03T00:33:22;100904.28;;;23.13;48.58
13974;BME280;7060;43.770;4.008;2022-08-03T00:35:54;100909.00;;;23.06;49.07
13974;BME280;7060;43.770;4.008;2022-08-03T00:38:22;100908.38;;;23.04;49.58
13974;BME280;7060;43.770;4.008;2022-08-03T00:40:53;100907.78;;;23.02;49.69
13974;BME280;7060;43.770;4.008;2022-08-03T00:43:24;100901.34;;;22.89;50.07
13974;BME280;7060;43.770;4.008;2022-08-03T00:45:54;100900.13;;;22.85;49.87
13974;BME280;7060;43.770;4.008;2022-08-03T00:48:23;100777.41;;;22.17;50.11
13974;BME280;7060;43.770;4.008;2022-08-03T00:51:00;100899.88;;;22.93;49.89
13974;BME280;7060;43.770;4.008;2022-08-03T00:53:29;100895.63;;;22.98;49.16
13974;BME280;7060;43.770;4.008;2022-08-03T00:56:00;100899.38;;;23.03;48.51
13974;BME280;7060;43.770;4.008;2022-08-03T00:58:29;100893.97;;;22.96;48.15
13974;BME280;7060;43.770;4.008;2022-08-03T01:01:01;100891.69;;;22.93;48.53
13974;BME280;7060;43.770;4.008;2022-08-03T01:03:33;100893.31;;;22.76;49.57
13974;BME280;7060;43.770;4.008;2022-08-03T01:06:09;100889.78;;;22.69;49.67
13974;BME280;7060;43.770;4.008;2022-08-03T01:08:46;100885.84;;;22.65;49.96
13974;BME280;7060;43.770;4.008;2022-08-03T01:11:23;100866.63;;;22.53;49.92
13974;BME280;7060;43.770;4.008;2022-08-03T01:14:03;100873.25;;;22.64;49.85
13974;BME280;7060;43.770;4.008;2022-08-03T01:16:53;100865.41;;;22.49;50.05
13974;BME280;7060;43.770;4.008;2022-08-03T01:19:38;100863.75;;;22.42;50.49
13974;BME280;7060;43.770;4.008;2022-08-03T01:22:21;100857.75;;;22.33;51.07
13974;BME280;7060;43.770;4.008;2022-08-03T01:25:02;100868.44;;;22.28;51.19
13974;BME280;7060;43.770;4.008;2022-08-03T01:27:45;100866.00;;;22.20;51.38
13974;BME280;7060;43.770;4.008;2022-08-03T01:30:20;100865.41;;;22.18;51.44
13974;BME280;7060;43.770;4.008;2022-08-03T01:32:58;100834.28;;;22.01;51.35
13974;BME280;7060;43.770;4.008;2022-08-03T01:35:32;100860.56;;;22.20;51.09
13974;BME280;7060;43.770;4.008;2022-08-03T01:38:10;100865.59;;;22.16;50.34
13974;BME280;7060;43.770;4.008;2022-08-03T01:40:40;100882.56;;;22.18;50.46
13974;BME280;7060;43.770;4.008;2022-08-03T01:43:14;100864.97;;;22.21;49.95
13974;BME280;7060;43.770;4.008;2022-08-03T01:46:05;100873.16;;;22.14;50.15
13974;BME280;7060;43.770;4.008;2022-08-03T01:48:37;100868.16;;;22.11;50.74
13974;BME280;7060;43.770;4.008;2022-08-03T01:51:08;100869.00;;;22.05;50.74
13974;BME280;7060;43.770;4.008;2022-08-03T01:53:39;100875.50;;;22.04;50.93
13974;BME280;7060;43.770;4.008;2022-08-03T01:56:10;100872.22;;;21.95;51.05
13974;BME280;7060;43.770;4.008;2022-08-03T01:58:41;100870.19;;;21.84;51.37
13974;BME280;7060;43.770;4.008;2022-08-03T02:01:14;100865.78;;;21.83;51.43
13974;BME280;7060;43.770;4.008;2022-08-03T02:03:45;100866.84;;;21.82;51.19
13974;BME280;7060;43.770;4.008;2022-08-03T02:06:27;100874.59;;;21.79;51.44
13974;BME280;7060;43.770;4.008;2022-08-03T02:09:19;100867.47;;;21.71;51.71
13974;BME280;7060;43.770;4.008;2022-08-03T02:11:50;100842.03;;;21.46;51.79
13974;BME280;7060;43.770;4.008;2022-08-03T02:14:20;100871.72;;;21.60;51.93
13974;BME280;7060;43.770;4.008;2022-08-03T02:16:51;100863.34;;;21.62;52.20
13974;BME280;7060;43.770;4.008;2022-08-03T02:19:23;100869.22;;;21.52;52.63
13974;BME280;7060;43.770;4.008;2022-08-03T02:21:53;100865.88;;;21.44;52.96
13974;BME280;7060;43.770;4.008;2022-08-03T02:24:28;100867.19;;;21.41;52.45
13974;BME280;7060;43.770;4.008;2022-08-03T02:26:57;100865.28;;;21.42;52.58
13974;BME280;7060;43.770;4.008;2022-08-03T02:29:32;100864.88;;;21.38;52.66
13974;BME280;7060;43.770;4.008;2022-08-03T02:32:13;100862.59;;;21.28;52.61
13974;BME280;7060;43.770;4.008;2022-08-03T02:34:46;100868.25;;;21.27;52.66
13974;BME280;7060;43.770;4.008;2022-08-03T02:37:18;100859.03;;;21.28;52.67
13974;BME280;7060;43.770;4.008;2022-08-03T02:39:48;100865.13;;;21.23;53.10
13974;BME280;7060;43.770;4.008;2022-08-03T02:42:20;100865.13;;;21.17;53.08
13974;BME280;7060;43.770;4.008;2022-08-03T02:44:52;100824.34;;;20.97;52.69
13974;BME280;7060;43.770;4.008;2022-08-03T02:47:27;100853.81;;;21.20;52.41
13974;BME280;7060;43.770;4.008;2022-08-03T02:50:17;100853.41;;;21.16;52.64
13974;BME280;7060;43.770;4.008;2022-08-03T02:52:48;100851.97;;;21.07;53.05
13974;BME280;7060;43.770;4.008;2022-08-03T02:55:19;100851.56;;;21.04;53.36
13974;BME280;7060;43.770;4.008;2022-08-03T02:57:50;100852.16;;;20.99;53.45
13974;BME280;7060;43.770;4.008;2022-08-03T03:00:20;100854.88;;;20.92;53.58
13974;BME280;7060;43.770;4.008;2022-08-03T03:02:58;100848.63;;;20.85;53.97
13974;BME280;7060;43.770;4.008;2022-08-03T03:05:28;100852.81;;;20.81;54.12
13974;BME280;7060;43.770;4.008;2022-08-03T03:08:19;100847.16;;;20.83;54.22
13974;BME280;7060;43.770;4.008;2022-08-03T03:10:55;100849.88;;;20.83;53.99
13974;BME280;7060;43.770;4.008;2022-08-03T03:13:27;100853.44;;;20.83;53.87
13974;BME280;7060;43.770;4.008;2022-08-03T03:15:59;100855.13;;;20.84;53.80
13974;BME280;7060;43.770;4.008;2022-08-03T03:18:30;100856.78;;;20.79;53.97
13974;BME280;7060;43.770;4.008;2022-08-03T03:21:01;100849.88;;;20.76;53.98
13974;BME280;7060;43.770;4.008;2022-08-03T03:23:34;100858.66;;;20.78;53.57
13974;BME280;7060;43.770;4.008;2022-08-03T03:26:04;100854.28;;;20.77;53.48
13974;BME280;7060;43.770;4.008;2022-08-03T03:28:35;100862.22;;;20.72;53.60
13974;BME280;7060;43.770;4.008;2022-08-03T03:31:06;100870.16;;;20.67;53.83
13974;BME280;7060;43.770;4.008;2022-08-03T03:33:37;100873.91;;;20.66;53.91
13974;BME280;7060;43.770;4.008;2022-08-03T03:36:06;100863.44;;;20.63;53.88
13974;BME280;7060;43.770;4.008;2022-08-03T03:38:36;100866.63;;;20.60;54.07
13974;BME280;7060;43.770;4.008;2022-08-03T03:41:05;100866.81;;;20.52;54.46
13974;BME280;7060;43.770;4.008;2022-08-03T03:43:35;100870.56;;;20.44;54.59
13974;BME280;7060;43.770;4.008;2022-08-03T03:46:03;100869.28;;;20.40;54.67
13974;BME280;7060;43.770;4.008;2022-08-03T03:48:33;100870.13;;;20.41;54.78
13974;BME280;7060;43.770;4.008;2022-08-03T03:51:03;100867.41;;;20.41;54.74
13974;BME280;7060;43.770;4.008;2022-08-03T03:53:32;100867.81;;;20.38;54.77
13974;BME280;7060;43.770;4.008;2022-08-03T03:56:01;100872.63;;;20.36;54.79
13974;BME280;7060;43.770;4.008;2022-08-03T03:58:31;100869.69;;;20.37;54.77
13974;BME280;7060;43.770;4.008;2022-08-03T04:01:00;100867.63;;;20.33;54.98
13974;BME280;7060;43.770;4.008;2022-08-03T04:03:29;100869.91;;;20.29;54.59
13974;BME280;7060;43.770;4.008;2022-08-03T04:05:59;100870.56;;;20.31;54.24
13974;BME280;7060;43.770;4.008;2022-08-03T04:08:47;100878.47;;;20.26;54.59
13974;BME280;7060;43.770;4.008;2022-08-03T04:11:46;100877.41;;;20.20;54.91
13974;BME280;7060;43.770;4.008;2022-08-03T04:14:18;100875.69;;;20.19;55.04
13974;BME280;7060;43.770;4.008;2022-08-03T04:16:51;100802.13;;;19.75;55.17
13974;BME280;7060;43.770;4.008;2022-08-03T04:19:25;100832.81;;;19.88;55.08
13974;BME280;7060;43.770;4.008;2022-08-03T04:21:56;100875.69;;;20.13;55.22
13974;BME280;7060;43.770;4.008;2022-08-03T04:24:32;100885.91;;;20.11;55.40
13974;BME280;7060;43.770;4.008;2022-08-03T04:27:04;100881.72;;;20.08;55.40
13974;BME280;7060;43.770;4.008;2022-08-03T04:29:36;100875.06;;;20.04;55.45
13974;BME280;7060;43.770;4.008;2022-08-03T04:32:15;100880.00;;;19.94;55.71
13974;BME280;7060;43.770;4.008;2022-08-03T04:34:45;100881.47;;;19.90;55.86
13974;BME280;7060;43.770;4.008;2022-08-03T04:37:19;100881.47;;;19.90;55.73
13974;BME280;7060;43.770;4.008;2022-08-03T04:39:53;100879.63;;;19.97;55.28
13974;BME280;7060;43.770;4.008;2022-08-03T04:42:24;100880.88;;;20.01;54.91
13974;BME280;7060;43.770;4.008;2022-08-03T04:44:54;100877.13;;;20.02;54.68
13974;BME280;7060;43.770;4.008;2022-08-03T04:47:29;100873.78;;;20.00;54.64
13974;BME280;7060;43.770;4.008;2022-08-03T04:50:00;100880.66;;;19.96;54.59
13974;BME280;7060;43.770;4.008;2022-08-03T04:52:30;100860.97;;;19.81;54.90
13974;BME280;7060;43.770;4.008;2022-08-03T04:55:00;100878.53;;;19.91;54.84
13974;BME280;7060;43.770;4.008;2022-08-03T04:57:29;100885.03;;;19.97;55.00
13974;BME280;7060;43.770;4.008;2022-08-03T04:59:58;100894.06;;;20.04;54.67
13974;BME280;7060;43.770;4.008;2022-08-03T05:02:30;100890.06;;;20.07;54.73
13974;BME280;7060;43.770;4.008;2022-08-03T05:05:00;100887.16;;;20.08;54.65
13974;BME280;7060;43.770;4.008;2022-08-03T05:07:28;100890.50;;;20.10;54.52
13974;BME280;7060;43.770;4.008;2022-08-03T05:10:06;100897.00;;;20.16;54.60
13974;BME280;7060;43.770;4.008;2022-08-03T05:12:43;100881.13;;;20.19;54.63
13974;BME280;7060;43.770;4.008;2022-08-03T05:15:13;100897.88;;;20.23;54.71
13974;BME280;7060;43.770;4.008;2022-08-03T05:17:43;100893.28;;;20.23;54.74
13974;BME280;7060;43.770;4.008;2022-08-03T05:20:12;100889.53;;;20.24;54.86
13974;BME280;7060;43.770;4.008;2022-08-03T05:22:45;100890.41;;;20.32;54.87
13974;BME280;7060;43.770;4.008;2022-08-03T05:25:15;100902.72;;;20.41;54.81
13974;BME280;7060;43.770;4.008;2022-08-03T05:27:47;100899.81;;;20.49;54.49
13974;BME280;7060;43.770;4.008;2022-08-03T05:30:16;100898.16;;;20.54;54.11
13974;BME280;7060;43.770;4.008;2022-08-03T05:33:01;100906.91;;;20.63;54.01
13974;BME280;7060;43.770;4.008;2022-08-03T05:35:30;100911.13;;;20.72;53.66
13974;BME280;7060;43.770;4.008;2022-08-03T05:38:21;100913.44;;;20.82;53.72
13974;BME280;7060;43.770;4.008;2022-08-03T05:41:02;100907.78;;;20.96;53.41
13974;BME280;7060;43.770;4.008;2022-08-03T05:43:49;100909.06;;;21.14;53.11
13974;BME280;7060;43.770;4.008;2022-08-03T05:46:17;100901.72;;;21.34;52.77
13974;BME280;7060;43.770;4.008;2022-08-03T05:48:47;100899.75;;;21.54;52.43
13974;BME280;7060;43.770;4.008;2022-08-03T05:51:16;100913.75;;;21.78;51.74
13974;BME280;7060;43.770;4.008;2022-08-03T05:53:45;100908.00;;;21.99;51.46
13974;BME280;7060;43.770;4.008;2022-08-03T05:56:15;100919.63;;;22.19;50.82
13974;BME280;7060;43.770;4.008;2022-08-03T05:58:45;100903.59;;;22.36;49.98
13974;BME280;7060;43.770;4.008;2022-08-03T06:01:15;100915.22;;;22.56;49.89
13974;BME280;7060;43.770;4.008;2022-08-03T06:03:44;100917.84;;;22.76;49.25
13974;BME280;7060;43.770;4.008;2022-08-03T06:06:14;100919.13;;;22.99;48.64
13974;BME280;7060;43.770;4.008;2022-08-03T06:08:44;100918.69;;;23.26;48.31
13974;BME280;7060;43.770;4.008;2022-08-03T06:11:14;100921.81;;;23.67;47.81
13974;BME280;7060;43.770;4.008;2022-08-03T06:13:43;100922.13;;;24.13;46.38
13974;BME280;7060;43.770;4.008;2022-08-03T06:16:12;100916.75;;;24.67;44.19
13974;BME280;7060;43.770;4.008;2022-08-03T06:18:41;100927.28;;;25.16;42.43
13974;BME280;7060;43.770;4.008;2022-08-03T06:21:11;100923.34;;;25.71;41.25
13974;BME280;7060;43.770;4.008;2022-08-03T06:23:43;100921.69;;;26.38;39.06
13974;BME280;7060;43.770;4.008;2022-08-03T06:26:24;100929.78;;;27.07;37.25
13974;BME280;7060;43.770;4.008;2022-08-03T06:28:54;100934.06;;;27.70;36.07
13974;BME280;7060;43.770;4.008;2022-08-03T06:31:24;100941.38;;;28.29;34.77
13974;BME280;7060;43.770;4.008;2022-08-03T06:34:03;100928.78;;;28.87;33.70
13974;BME280;7060;43.770;4.008;2022-08-03T06:36:53;100935.03;;;29.47;32.70
13974;BME280;7060;43.770;4.008;2022-08-03T06:39:28;100923.41;;;29.87;31.79
13974;BME280;7060;43.770;4.008;2022-08-03T06:41:58;100935.13;;;30.24;31.04
13974;BME280;7060;43.770;4.008;2022-08-03T06:44:27;100927.47;;;30.37;30.69
13974;BME280;7060;43.770;4.008;2022-08-03T06:46:56;100931.13;;;30.78;29.76
13974;BME280;7060;43.770;4.008;2022-08-03T06:49:25;100945.19;;;31.07;29.72
13974;BME280;7060;43.770;4.008;2022-08-03T06:51:54;100936.34;;;31.30;29.45
13974;BME280;7060;43.770;4.008;2022-08-03T06:54:33;100945.94;;;31.68;29.07
13974;BME280;7060;43.770;4.008;2022-08-03T06:57:04;100939.47;;;32.08;28.51
13974;BME280;7060;43.770;4.008;2022-08-03T06:59:34;100945.16;;;32.37;28.09
13974;BME280;7060;43.770;4.008;2022-08-03T07:02:23;100945.75;;;32.68;27.57
13974;BME280;7060;43.770;4.008;2022-08-03T07:04:55;100939.28;;;32.88;27.03
13974;BME280;7060;43.770;4.008;2022-08-03T07:07:24;100945.44;;;33.09;26.65
13974;BME280;7060;43.770;4.008;2022-08-03T07:09:53;100947.66;;;33.41;26.11
13974;BME280;7060;43.770;4.008;2022-08-03T07:12:29;100952.06;;;33.71;26.37
13974;BME280;7060;43.770;4.008;2022-08-03T07:14:59;100954.53;;;33.96;25.84
13974;BME280;7060;43.770;4.008;2022-08-03T07:17:30;100954.13;;;34.26;25.48
13974;BME280;7060;43.770;4.008;2022-08-03T07:20:02;100935.16;;;34.34;24.91
13974;BME280;7060;43.770;4.008;2022-08-03T07:22:31;100956.16;;;34.58;24.55
13974;BME280;7060;43.770;4.008;2022-08-03T07:25:00;100961.88;;;34.67;24.44
13974;BME280;7060;43.770;4.008;2022-08-03T07:27:31;100965.94;;;34.93;24.35
13974;BME280;7060;43.770;4.008;2022-08-03T07:30:00;100956.00;;;35.06;23.76
13974;BME280;7060;43.770;4.008;2022-08-03T07:32:29;100966.81;;;35.08;23.66
13974;BME280;7060;43.770;4.008;2022-08-03T07:34:58;100956.09;;;35.15;23.78
13974;BME280;7060;43.770;4.008;2022-08-03T07:37:28;100957.16;;;35.19;23.92
13974;BME280;7060;43.770;4.008;2022-08-03T07:39:58;100967.59;;;35.27;23.92
13974;BME280;7060;43.770;4.008;2022-08-03T07:42:27;100973.81;;;35.38;23.47
13974;BME280;7060;43.770;4.008;2022-08-03T07:44:58;100974.56;;;35.57;23.40
13974;BME280;7060;43.770;4.008;2022-08-03T07:47:28;100979.22;;;35.75;23.27
13974;BME280;7060;43.770;4.008;2022-08-03T07:50:04;100974.59;;;35.84;23.35
13974;BME280;7060;43.770;4.008;2022-08-03T07:52:35;100977.56;;;36.15;23.25
13974;BME280;7060;43.770;4.008;2022-08-03T07:55:17;100980.53;;;36.33;22.76
13974;BME280;7060;43.770;4.008;2022-08-03T07:57:46;100978.31;;;36.57;22.71
13974;BME280;7060;43.770;4.008;2022-08-03T08:00:18;100975.84;;;36.69;22.02
13974;BME280;7060;43.770;4.008;2022-08-03T08:02:47;100973.16;;;36.86;22.48
13974;BME280;7060;43.770;4.008;2022-08-03T08:05:16;100968.41;;;36.87;21.89
13974;BME280;7060;43.770;4.008;2022-08-03T08:07:45;100959.75;;;36.88;22.36
13974;BME280;7060;43.770;4.008;2022-08-03T08:10:18;100968.72;;;36.85;22.32
13974;BME280;7060;43.770;4.008;2022-08-03T08:12:47;100962.53;;;36.66;22.55
13974;BME280;7060;43.770;4.008;2022-08-03T08:15:18;100960.78;;;36.56;22.59
13974;BME280;7060;43.770;4.008;2022-08-03T08:17:49;100962.06;;;36.37;22.98
13974;BME280;7060;43.770;4.008;2022-08-03T08:20:19;100960.75;;;36.20;23.50
13974;BME280;7060;43.770;4.008;2022-08-03T08:22:58;100960.13;;;36.10;23.53
13974;BME280;7060;43.770;4.008;2022-08-03T08:25:30;100963.13;;;36.00;23.32
13974;BME280;7060;43.770;4.008;2022-08-03T08:28:00;100915.75;;;35.64;23.94
13974;BME280;7060;43.770;4.008;2022-08-03T08:30:52;100964.78;;;35.73;23.99
13974;BME280;7060;43.770;4.008;2022-08-03T08:33:21;100961.25;;;35.68;23.76
13974;BME280;7060;43.770;4.008;2022-08-03T08:35:52;100959.59;;;35.67;24.32
13974;BME280;7060;43.770;4.008;2022-08-03T08:38:21;100962.53;;;35.75;24.10
13974;BME280;7060;43.770;4.008;2022-08-03T08:40:50;100961.72;;;35.75;24.36
13974;BME280;7060;43.770;4.008;2022-08-03T08:43:19;100962.50;;;35.61;24.78
13974;BME280;7060;43.770;4.008;2022-08-03T08:45:48;100965.91;;;35.58;24.42
13974;BME280;7060;43.770;4.008;2022-08-03T08:48:23;100959.78;;;35.43;25.59
13974;BME280;7060;43.770;4.008;2022-08-03T08:50:53;100954.22;;;35.43;26.07
13974;BME280;7060;43.770;4.008;2022-08-03T08:53:25;100959.78;;;35.43;26.22
13974;BME280;7060;43.770;4.008;2022-08-03T08:55:57;100960.53;;;35.48;26.68
13974;BME280;7060;43.770;4.008;2022-08-03T08:58:34;100958.78;;;35.52;26.25
13974;BME280;7060;43.770;4.008;2022-08-03T09:01:04;100967.84;;;35.58;26.20
13974;BME280;7060;43.770;4.008;2022-08-03T09:03:35;100970.34;;;35.59;25.78
13974;BME280;7060;43.770;4.008;2022-08-03T09:06:05;100968.78;;;35.53;26.15
13974;BME280;7060;43.770;4.008;2022-08-03T09:08:34;100973.22;;;35.54;25.98
13974;BME280;7060;43.770;4.008;2022-08-03T09:11:03;100964.34;;;35.52;25.98
13974;BME280;7060;43.770;4.008;2022-08-03T09:13:34;100969.50;;;35.59;26.15
13974;BME280;7060;43.770;4.008;2022-08-03T09:16:11;100969.91;;;35.66;25.90
13974;BME280;7060;43.770;4.008;2022-08-03T09:18:43;100971.19;;;35.74;26.07
13974;BME280;7060;43.770;4.008;2022-08-03T09:21:13;100971.00;;;35.84;26.35
13974;BME280;7060;43.770;4.008;2022-08-03T09:24:00;100969.34;;;35.83;25.75
13974;BME280;7060;43.770;4.008;2022-08-03T09:26:33;100970.66;;;35.99;25.89
13974;BME280;7060;43.770;4.008;2022-08-03T09:29:04;100967.66;;;36.09;25.47
13974;BME280;7060;43.770;4.008;2022-08-03T09:31:41;100975.91;;;36.14;25.75
13974;BME280;7060;43.770;4.008;2022-08-03T09:34:14;100972.28;;;36.27;25.27
13974;BME280;7060;43.770;4.008;2022-08-03T09:36:44;100966.81;;;36.36;25.25
13974;BME280;7060;43.770;4.008;2022-08-03T09:39:15;100962.47;;;36.44;25.39
13974;BME280;7060;43.770;4.008;2022-08-03T09:41:45;100970.34;;;36.64;25.24
13974;BME280;7060;43.770;4.008;2022-08-03T09:44:14;100953.13;;;36.62;24.84
13974;BME280;7060;43.770;4.008;2022-08-03T09:46:53;100969.56;;;36.86;24.55
13974;BME280;7060;43.770;4.008;2022-08-03T09:49:24;100974.69;;;36.92;23.86
13974;BME280;7060;43.770;4.008;2022-08-03T09:51:53;100971.50;;;37.08;24.31
13974;BME280;7060;43.770;4.008;2022-08-03T09:54:42;100968.31;;;37.14;24.13
13974;BME280;7060;43.770;4.008;2022-08-03T09:57:21;100969.81;;;37.20;23.85
13974;BME280;7060;43.770;4.008;2022-08-03T09:59:50;100963.44;;;37.20;23.44
13974;BME280;7060;43.770;4.008;2022-08-03T10:02:38;100941.88;;;37.12;23.52
13974;BME280;7060;43.770;4.008;2022-08-03T10:05:10;100953.31;;;37.33;23.33
13974;BME280;7060;43.770;4.008;2022-08-03T10:07:47;100961.22;;;37.39;23.73
13974;BME280;7060;43.770;4.008;2022-08-03T10:10:17;100958.69;;;37.51;23.14
13974;BME280;7060;43.770;4.008;2022-08-03T10:12:59;100931.81;;;37.24;23.28
13974;BME280;7060;43.770;4.008;2022-08-03T10:15:28;100959.25;;;37.40;23.89
13974;BME280;7060;43.770;4.008;2022-08-03T10:18:17;100949.44;;;37.42;23.49
13974;BME280;7060;43.770;4.008;2022-08-03T10:20:51;100954.09;;;37.55;22.86
13974;BME280;7060;43.770;4.008;2022-08-03T10:23:21;100952.91;;;37.79;23.30
13974;BME280;7060;43.770;4.008;2022-08-03T10:25:55;100950.63;;;37.89;22.26
13974;BME280;7060;43.770;4.008;2022-08-03T10:28:27;100950.94;;;37.88;22.23
13974;BME280;7060;43.770;4.008;2022-08-03T10:31:04;100946.00;;;37.85;22.40
13974;BME280;7060;43.770;4.008;2022-08-03T10:33:36;100954.41;;;37.93;22.08
13974;BME280;7060;43.770;4.008;2022-08-03T10:36:22;100960.81;;;37.94;21.83
13974;BME280;7060;43.770;4.008;2022-08-03T10:38:52;100963.16;;;38.01;22.31
13974;BME280;7060;43.770;4.008;2022-08-03T10:41:25;100955.72;;;37.96;22.06
13974;BME280;7060;43.770;4.008;2022-08-03T10:44:01;100956.56;;;37.97;22.73
13974;BME280;7060;43.770;4.008;2022-08-03T10:46:32;100944.63;;;38.05;22.56
13974;BME280;7060;43.770;4.008;2022-08-03T10:49:08;100928.63;;;37.97;22.51
13974;BME280;7060;43.770;4.008;2022-08-03T10:51:43;100954.97;;;38.21;21.87
13974;BME280;7060;43.770;4.008;2022-08-03T10:54:38;100956.13;;;38.20;22.06
13974;BME280;7060;43.770;4.008;2022-08-03T10:57:47;100962.03;;;38.19;22.21
13974;BME280;7060;43.770;4.008;2022-08-03T11:00:17;100951.53;;;38.16;22.26
13974;BME280;7060;43.770;4.008;2022-08-03T11:03:07;100915.63;;;37.75;22.74
13974;BME280;7060;43.770;4.008;2022-08-03T11:05:38;100967.59;;;38.02;22.82
13974;BME280;7060;43.770;4.008;2022-08-03T11:08:23;100961.69;;;38.03;23.27
13974;BME280;7060;43.770;4.008;2022-08-03T11:10:54;100959.53;;;38.00;23.14
13974;BME280;7060;43.770;4.008;2022-08-03T11:13:24;100957.44;;;38.06;23.57
13974;BME280;7060;43.770;4.008;2022-08-03T11:15:55;100949.88;;;38.06;23.68
13974;BME280;7060;43.770;4.008;2022-08-03T11:18:28;100961.38;;;38.05;23.82
13974;BME280;7060;43.770;4.008;2022-08-03T11:20:58;100966.31;;;38.08;23.56
13974;BME280;7060;43.770;4.008;2022-08-03T11:23:43;100968.91;;;38.13;23.08
13974;BME280;7060;43.770;4.008;2022-08-03T11:26:32;100960.72;;;38.16;23.33
13974;BME280;7060;43.770;4.008;2022-08-03T11:29:26;100950.88;;;38.19;23.23
13974;BME280;7060;43.770;4.008;2022-08-03T11:31:56;100954.81;;;38.18;22.81
13974;BME280;7060;43.770;4.008;2022-08-03T11:34:25;100953.66;;;38.02;23.27
13974;BME280;7060;43.770;4.008;2022-08-03T11:37:18;100958.84;;;37.94;22.62
13974;BME280;7060;43.770;4.008;2022-08-03T11:39:59;100952.06;;;37.78;22.89
13974;BME280;7060;43.770;4.008;2022-08-03T11:42:41;100945.66;;;37.78;23.58
13974;BME280;7060;43.770;4.008;2022-08-03T11:45:14;100947.00;;;37.89;23.40
13974;BME280;7060;43.770;4.008;2022-08-03T11:47:46;100948.97;;;37.80;23.80
13974;BME280;7060;43.770;4.008;2022-08-03T11:50:18;100943.72;;;37.87;23.71
13974;BME280;7060;43.770;4.008;2022-08-03T11:52:48;100945.72;;;37.95;22.88
13974;BME280;7060;43.770;4.008;2022-08-03T11:55:19;100943.41;;;37.97;23.17
13974;BME280;7060;43.770;4.008;2022-08-03T11:57:57;100857.78;;;37.58;22.97
13974;BME280;7060;43.770;4.008;2022-08-03T12:00:47;100948.41;;;38.17;23.01
13974;BME280;7060;43.770;4.008;2022-08-03T12:03:18;100941.34;;;38.20;22.89
13974;BME280;7060;43.770;4.008;2022-08-03T12:05:49;100940.03;;;38.17;22.58
13974;BME280;7060;43.770;4.008;2022-08-03T12:08:29;100935.75;;;38.20;22.40
13974;BME280;7060;43.770;4.008;2022-08-03T12:11:03;100937.38;;;38.12;22.73
13974;BME280;7060;43.770;4.008;2022-08-03T12:13:38;100935.28;;;38.09;22.21
13974;BME280;7060;43.770;4.008;2022-08-03T12:16:27;100932.75;;;37.99;22.72
13974;BME280;7060;43.770;4.008;2022-08-03T12:18:57;100942.75;;;37.91;22.39
13974;BME280;7060;43.770;4.008;2022-08-03T12:21:26;100933.69;;;37.86;22.92
13974;BME280;7060;43.770;4.008;2022-08-03T12:23:56;100925.44;;;37.64;23.07
13974;BME280;7060;43.770;4.008;2022-08-03T12:26:29;100930.22;;;37.72;23.74
13974;BME280;7060;43.770;4.008;2022-08-03T12:28:58;100927.41;;;37.63;23.00
13974;BME280;7060;43.770;4.008;2022-08-03T12:31:27;100926.72;;;37.57;23.05
13974;BME280;7060;43.770;4.008;2022-08-03T12:33:58;100927.91;;;37.65;22.75
13974;BME280;7060;43.770;4.008;2022-08-03T12:36:30;100932.97;;;37.63;22.44
13974;BME280;7060;43.770;4.008;2022-08-03T12:39:01;100927.88;;;37.56;23.15
13974;BME280;7060;43.770;4.008;2022-08-03T12:41:34;100930.34;;;37.27;23.33
13974;BME280;7060;43.770;4.008;2022-08-03T12:44:05;100932.31;;;37.26;23.16
13974;BME280;7060;43.770;4.008;2022-08-03T12:46:35;100929.69;;;37.30;22.46
13974;BME280;7060;43.770;4.008;2022-08-03T12:49:07;100932.97;;;37.32;22.08
13974;BME280;7060;43.770;4.008;2022-08-03T12:51:55;100927.75;;;37.39;22.23
13974;BME280;7060;43.770;4.008;2022-08-03T12:54:26;100931.06;;;37.41;21.37
13974;BME280;7060;43.770;4.008;2022-08-03T12:56:59;100930.22;;;37.41;20.86
13974;BME280;7060;43.770;4.008;2022-08-03T12:59:30;100933.06;;;37.49;20.44
13974;BME280;7060;43.770;4.008;2022-08-03T13:02:13;100929.88;;;37.65;20.95
13974;BME280;7060;43.770;4.008;2022-08-03T13:04:44;100898.31;;;37.55;20.57
13974;BME280;7060;43.770;4.008;2022-08-03T13:07:14;100924.03;;;37.92;20.38
13974;BME280;7060;43.770;4.008;2022-08-03T13:09:46;100922.28;;;38.05;20.12
13974;BME280;7060;43.770;4.008;2022-08-03T13:12:18;100923.44;;;38.12;20.14
13974;BME280;7060;43.770;4.008;2022-08-03T13:14:50;100902.50;;;37.75;20.27
13974;BME280;7060;43.770;4.008;2022-08-03T13:17:20;100928.78;;;37.83;19.82
13974;BME280;7060;43.770;4.008;2022-08-03T13:19:49;100924.34;;;37.82;20.03
13974;BME280;7060;43.770;4.008;2022-08-03T13:22:20;100924.34;;;37.82;19.92
13974;BME280;7060;43.770;4.008;2022-08-03T13:24:51;100923.22;;;37.83;20.38
13974;BME280;7060;43.770;4.008;2022-08-03T13:27:24;100925.31;;;37.86;20.37
13974;BME280;7060;43.770;4.008;2022-08-03T13:30:13;100924.63;;;37.72;20.56
13974;BME280;7060;43.770;4.008;2022-08-03T13:32:56;100930.69;;;37.65;20.45